首页
METAR-TAF:

METAR-TAF

机场 :

布良斯克, 俄罗斯

纬度: 53-15N, 经度: 034-19E, 海拔: 217米

当前天气观测

该预报发布于6小时和17分钟前的15:00 UTC
风速14节,风向
温度 18°C
湿度 73%
气压 1025 hPa
能见度10公里或以上
多云层高于2200英尺

METAR: UUBP 221500Z 35007MPS 9999 BKN022 18/13 Q1025 R34/CLRD70 NOSIG RMK QFE751/1002

时间: 00:17 (21:17 UTC)

预报

该预报发布于10小时和18分钟前的10:59 UTC
预报有效从22日的 12点(UTC)到 22日的 21点(UTC)
风速12节,风向西北,有时为21节阵风
能见度10公里或以上
多云层高于2000英尺
短暂存在
从 22日的 12点(UTC)到 22日的 21点(UTC)
多云层高于1500英尺, 积雨云.
小阵雨

TAF: UUBP 221059Z 2212/2221 32006G11MPS 9999 BKN020 TEMPO 2212/2221 -SHRA BKN015CB

超过4000个机场的气象观测和天气预报(METAR&TAF报告)。

可查询的气象台以黄色和红色小点在地图上表示。

将鼠标移到小点上方,可查看气象台名称。

然后点击查看天气观测和预报。

如需切换地图:点击带黑十字的绿色按钮放大地图;点击带横线的绿色按钮缩小地图;或者点击绿色箭头查看邻近地区的地图。


METAR-TAF: